createdAt,value
2023-01-28T10:05:40.790Z,0.84
2023-01-28T10:06:38.339Z,0.83
2023-01-28T10:07:38.337Z,0.84
2023-01-28T10:08:38.328Z,0.96
2023-01-28T10:09:38.374Z,0.98
2023-01-28T10:10:38.333Z,0.99
2023-01-28T10:11:38.310Z,1.08
2023-01-28T10:12:38.309Z,1.04
2023-01-28T10:13:38.308Z,1.16
2023-01-28T10:14:38.322Z,1.16
2023-01-28T10:15:38.282Z,1.28
2023-01-28T10:16:38.291Z,1.34
2023-01-28T10:17:38.311Z,1.30
2023-01-28T10:18:38.285Z,1.30
2023-01-28T10:19:45.264Z,1.30
2023-01-28T10:20:38.252Z,1.26
2023-01-28T10:21:38.246Z,1.31
2023-01-28T10:22:38.240Z,1.28
2023-01-28T10:23:38.238Z,1.31
2023-01-28T10:24:38.237Z,1.37
2023-01-28T10:25:38.229Z,1.34
2023-01-28T10:26:38.204Z,1.44
2023-01-28T10:27:38.206Z,1.44
2023-01-28T10:28:38.196Z,1.45
2023-01-28T10:29:38.207Z,1.56
2023-01-28T10:30:38.207Z,1.50
2023-01-28T10:31:38.259Z,1.59
2023-01-28T10:32:38.164Z,1.55
2023-01-28T10:33:38.195Z,1.56
2023-01-28T10:34:38.153Z,1.62
2023-01-28T10:35:38.146Z,1.55
2023-01-28T10:36:38.136Z,1.58
2023-01-28T10:37:38.138Z,1.59
2023-01-28T10:38:38.144Z,1.59
2023-01-28T10:39:38.122Z,1.58
2023-01-28T10:40:38.112Z,1.56
2023-01-28T10:41:45.318Z,1.58
2023-01-28T10:42:38.101Z,1.55
2023-01-28T10:43:38.120Z,1.59
2023-01-28T10:44:38.089Z,1.53
2023-01-28T10:45:38.174Z,1.41
2023-01-28T10:46:38.070Z,1.53
2023-01-28T10:47:38.070Z,1.38
2023-01-28T10:48:38.057Z,1.60
2023-01-28T10:49:38.083Z,1.52
2023-01-28T10:50:38.050Z,1.56
2023-01-28T10:51:38.042Z,1.66
2023-01-28T10:52:38.034Z,1.68
2023-01-28T10:53:38.035Z,1.63
2023-01-28T10:54:38.025Z,1.63
2023-01-28T10:55:38.034Z,1.53
2023-01-28T10:56:38.011Z,1.59
2023-01-28T10:57:38.005Z,1.63
2023-01-28T10:58:38.033Z,1.70
2023-01-28T10:59:37.990Z,1.73
2023-01-28T11:00:37.985Z,1.58
2023-01-28T11:01:37.981Z,1.63
2023-01-28T11:02:38.014Z,1.66
2023-01-28T11:03:37.976Z,1.66
2023-01-28T11:04:37.993Z,1.70
2023-01-28T11:05:37.949Z,1.66
2023-01-28T11:06:37.951Z,1.73
2023-01-28T11:07:37.963Z,1.73
2023-01-28T11:08:37.921Z,1.74
2023-01-28T11:09:37.941Z,1.67
2023-01-28T11:10:37.917Z,1.70
2023-01-28T11:11:37.908Z,1.63
2023-01-28T11:12:37.914Z,1.70
2023-01-28T11:13:37.896Z,1.74
2023-01-28T11:14:37.880Z,1.60
2023-01-28T11:15:37.892Z,1.70
2023-01-28T11:16:37.882Z,1.76
2023-01-28T11:17:37.918Z,1.76
2023-01-28T11:18:37.871Z,1.84
2023-01-28T11:19:37.856Z,1.80
2023-01-28T11:20:37.845Z,1.84
2023-01-28T11:21:37.846Z,1.63
2023-01-28T11:22:37.851Z,1.76
2023-01-28T11:23:37.833Z,1.84
2023-01-28T11:24:37.819Z,1.73
2023-01-28T11:25:37.841Z,1.89
2023-01-28T11:26:37.825Z,1.89
2023-01-28T11:27:37.821Z,1.88
2023-01-28T11:28:37.787Z,1.97
2023-01-28T11:29:37.816Z,1.89
2023-01-28T11:30:37.880Z,1.85
2023-01-28T11:31:37.804Z,1.74
2023-01-28T11:32:37.761Z,1.85
2023-01-28T11:33:37.765Z,1.84
2023-01-28T11:34:37.752Z,1.80
2023-01-28T11:35:37.774Z,1.63
2023-01-28T11:36:37.740Z,1.76
2023-01-28T11:37:37.728Z,1.78
2023-01-28T11:38:37.717Z,1.68
2023-01-28T11:39:37.712Z,1.87
2023-01-28T11:40:37.700Z,1.85
2023-01-28T11:41:37.730Z,1.89
2023-01-28T11:42:37.700Z,1.85
2023-01-28T11:43:37.696Z,1.91
2023-01-28T11:44:37.701Z,1.94
2023-01-28T11:45:37.726Z,1.73
2023-01-28T11:46:37.687Z,1.68
2023-01-28T11:47:37.655Z,1.76
2023-01-28T11:48:37.641Z,1.81
2023-01-28T11:49:37.640Z,1.67
2023-01-28T11:50:37.630Z,1.74
2023-01-28T11:51:37.631Z,1.81
2023-01-28T11:52:55.484Z,1.76
2023-01-28T11:53:37.609Z,1.74
2023-01-28T11:54:37.630Z,1.76
2023-01-28T11:55:37.610Z,1.80
2023-01-28T11:56:37.615Z,1.71
2023-01-28T11:57:37.591Z,1.71
2023-01-28T11:58:37.593Z,1.76
2023-01-28T11:59:37.580Z,1.84
2023-01-28T12:00:37.580Z,1.85
2023-01-28T12:01:37.574Z,1.85
2023-01-28T12:02:37.602Z,1.88
2023-01-28T12:03:37.567Z,1.92
2023-01-28T12:04:37.586Z,1.87
2023-01-28T12:05:37.554Z,1.85
2023-01-28T12:06:37.538Z,1.84
2023-01-28T12:07:37.569Z,1.87
2023-01-28T12:08:37.536Z,1.78
2023-01-28T12:09:37.516Z,1.77
2023-01-28T12:10:37.530Z,1.81
2023-01-28T12:11:37.501Z,1.84
2023-01-28T12:12:37.496Z,1.88
2023-01-28T12:13:37.492Z,2.02
2023-01-28T12:14:37.478Z,2.04
2023-01-28T12:15:37.503Z,1.87
2023-01-28T12:16:37.486Z,1.84
2023-01-28T12:17:37.455Z,1.89
2023-01-28T12:18:37.446Z,1.88
2023-01-28T12:19:37.452Z,1.97
2023-01-28T12:20:37.440Z,2.06
2023-01-28T12:21:37.440Z,2.02
2023-01-28T12:22:37.440Z,2.07
2023-01-28T12:23:37.437Z,2.11
2023-01-28T12:24:37.408Z,2.02
2023-01-28T12:25:37.412Z,2.17
2023-01-28T12:26:37.402Z,2.04
2023-01-28T12:27:37.394Z,2.04
2023-01-28T12:28:37.449Z,2.15
2023-01-28T12:29:37.384Z,2.10
2023-01-28T12:30:37.379Z,2.08
2023-01-28T12:31:37.481Z,2.06
2023-01-28T12:32:37.358Z,1.89
2023-01-28T12:33:37.366Z,1.97
2023-01-28T12:34:37.376Z,2.04
2023-01-28T12:35:37.355Z,1.87
2023-01-28T12:36:37.338Z,1.77
2023-01-28T12:37:37.321Z,1.84
2023-01-28T12:38:37.311Z,1.92
2023-01-28T12:39:37.309Z,1.89
2023-01-28T12:40:37.302Z,1.88
2023-01-28T12:41:37.335Z,2.10
2023-01-28T12:42:37.308Z,2.04
2023-01-28T12:43:37.279Z,1.84
2023-01-28T12:44:37.279Z,1.92
2023-01-28T12:45:37.351Z,2.00
2023-01-28T12:46:37.260Z,1.94
2023-01-28T12:47:37.255Z,1.95
2023-01-28T12:48:37.254Z,1.94
2023-01-28T12:49:37.255Z,1.87
2023-01-28T12:50:37.236Z,1.85
2023-01-28T12:51:37.250Z,1.74
2023-01-28T12:52:37.238Z,1.77
2023-01-28T12:53:37.231Z,1.76
2023-01-28T12:54:37.228Z,1.91
2023-01-28T12:55:37.215Z,1.91
2023-01-28T12:56:37.190Z,1.84
2023-01-28T12:57:37.193Z,1.74
2023-01-28T12:58:37.210Z,1.84
2023-01-28T12:59:37.179Z,1.77
2023-01-28T13:00:37.174Z,1.84
2023-01-28T13:01:37.167Z,1.81
2023-01-28T13:02:37.157Z,1.71
2023-01-28T13:03:37.156Z,1.77
2023-01-28T13:04:39.639Z,1.81
2023-01-28T13:05:37.155Z,1.89
2023-01-28T13:06:37.169Z,1.78
2023-01-28T13:07:37.152Z,1.85
2023-01-28T13:08:37.136Z,1.91
2023-01-28T13:09:37.109Z,1.84
2023-01-28T13:10:37.111Z,1.91
2023-01-28T13:11:37.115Z,1.91
2023-01-28T13:12:37.126Z,1.99
2023-01-28T13:13:37.096Z,1.99
2023-01-28T13:14:37.095Z,2.08
2023-01-28T13:15:37.100Z,2.04
2023-01-28T13:16:38.043Z,2.04
2023-01-28T13:17:37.060Z,2.08
2023-01-28T13:18:37.047Z,2.06
2023-01-28T13:19:37.054Z,1.95
2023-01-28T13:20:37.044Z,1.89
2023-01-28T13:21:47.310Z,1.91
2023-01-28T13:22:38.023Z,1.95
2023-01-28T13:23:37.028Z,1.94
2023-01-28T13:24:37.036Z,1.85
2023-01-28T13:25:37.063Z,1.84
2023-01-28T13:26:37.018Z,1.87
2023-01-28T13:27:37.028Z,1.71
2023-01-28T13:28:37.009Z,1.85
2023-01-28T13:29:36.982Z,1.73
2023-01-28T13:30:37.026Z,1.67
2023-01-28T13:31:36.983Z,1.70
2023-01-28T13:32:37.048Z,1.76
2023-01-28T13:33:36.972Z,1.67
2023-01-28T13:34:36.968Z,1.70
2023-01-28T13:35:36.942Z,1.63
2023-01-28T13:36:36.929Z,1.58
2023-01-28T13:37:36.945Z,1.73
2023-01-28T13:38:36.943Z,1.55
2023-01-28T13:39:36.935Z,1.60
2023-01-28T13:40:36.922Z,1.66
2023-01-28T13:41:36.916Z,1.56
2023-01-28T13:42:36.909Z,1.58
2023-01-28T13:43:36.906Z,1.66
2023-01-28T13:44:36.894Z,1.66
2023-01-28T13:45:36.948Z,1.62
2023-01-28T13:46:36.874Z,1.60
2023-01-28T13:47:36.866Z,1.68
2023-01-28T13:48:36.880Z,1.62
2023-01-28T13:49:36.854Z,1.67
2023-01-28T13:50:36.854Z,1.73
2023-01-28T13:51:36.848Z,1.68
2023-01-28T13:52:36.834Z,1.60
2023-01-28T13:53:36.826Z,1.59
2023-01-28T13:54:36.837Z,1.59
2023-01-28T13:55:44.163Z,1.56
2023-01-28T13:56:37.818Z,1.37
2023-01-28T13:57:36.810Z,1.56
2023-01-28T13:58:36.797Z,1.55
2023-01-28T13:59:36.788Z,1.55
2023-01-28T14:00:36.817Z,1.66
2023-01-28T14:01:36.813Z,1.59
2023-01-28T14:02:36.792Z,1.68
2023-01-28T14:03:36.771Z,1.63
2023-01-28T14:04:36.787Z,1.58
2023-01-28T14:05:36.744Z,1.56
2023-01-28T14:06:36.766Z,1.63
2023-01-28T14:07:36.767Z,1.71
2023-01-28T14:08:36.725Z,1.67
2023-01-28T14:09:36.744Z,1.62
2023-01-28T14:10:36.745Z,1.55
2023-01-28T14:11:36.716Z,1.59
2023-01-28T14:12:36.705Z,1.59
2023-01-28T14:13:36.719Z,1.68
2023-01-28T14:14:36.689Z,1.71
2023-01-28T14:15:36.717Z,1.68
2023-01-28T14:16:36.691Z,1.68
2023-01-28T14:17:36.676Z,1.77
2023-01-28T14:18:36.667Z,1.80
2023-01-28T14:19:36.669Z,1.63
2023-01-28T14:20:36.682Z,1.70
2023-01-28T14:21:36.643Z,1.77
2023-01-28T14:22:36.662Z,1.76
2023-01-28T14:23:36.663Z,1.76
2023-01-28T14:24:36.634Z,1.76
2023-01-28T14:25:36.648Z,1.76
2023-01-28T14:26:36.633Z,1.73
2023-01-28T14:27:36.603Z,1.76
2023-01-28T14:28:36.601Z,1.66
2023-01-28T14:29:36.598Z,1.68
2023-01-28T14:30:36.601Z,1.77
2023-01-28T14:31:36.671Z,1.71
2023-01-28T14:32:36.569Z,1.71
2023-01-28T14:33:36.575Z,1.78
2023-01-28T14:34:36.583Z,1.59
2023-01-28T14:35:36.575Z,1.59
2023-01-28T14:36:36.546Z,1.74
2023-01-28T14:37:36.649Z,1.67
2023-01-28T14:38:36.543Z,1.55
2023-01-28T14:39:36.543Z,1.62
2023-01-28T14:40:36.554Z,1.63
2023-01-28T14:41:36.528Z,1.67
2023-01-28T14:42:36.559Z,1.59
2023-01-28T14:43:36.523Z,1.68
2023-01-28T14:44:36.512Z,1.63
2023-01-28T14:45:36.491Z,1.63
2023-01-28T14:46:36.538Z,1.67
2023-01-28T14:47:36.478Z,1.68
2023-01-28T14:48:36.582Z,1.74
2023-01-28T14:49:36.485Z,1.73
2023-01-28T14:50:36.458Z,1.63
2023-01-28T14:51:36.450Z,1.71
2023-01-28T14:52:36.473Z,1.68
2023-01-28T14:53:36.465Z,1.68
2023-01-28T14:54:36.439Z,1.68
2023-01-28T14:55:36.432Z,1.58
2023-01-28T14:56:36.657Z,1.56
2023-01-28T14:57:36.442Z,1.49
2023-01-28T14:58:36.423Z,1.49
2023-01-28T14:59:36.416Z,1.55
2023-01-28T15:00:36.411Z,1.45
2023-01-28T15:01:36.414Z,1.42
2023-01-28T15:02:36.402Z,1.48
2023-01-28T15:03:36.420Z,1.45
2023-01-28T15:04:36.390Z,1.44
2023-01-28T15:05:36.367Z,1.41
2023-01-28T15:06:36.385Z,1.42
2023-01-28T15:07:36.365Z,1.41
2023-01-28T15:08:36.353Z,1.49
2023-01-28T15:09:36.343Z,1.32
2023-01-28T15:10:36.378Z,1.53
2023-01-28T15:11:36.331Z,1.42
2023-01-28T15:12:36.323Z,1.35
2023-01-28T15:13:36.360Z,1.24
2023-01-28T15:14:36.310Z,1.24
2023-01-28T15:15:36.322Z,1.24
2023-01-28T15:16:36.323Z,1.20
2023-01-28T15:17:36.298Z,1.14
2023-01-28T15:18:36.287Z,1.20
2023-01-28T15:19:36.286Z,1.28
2023-01-28T15:20:36.275Z,1.37
2023-01-28T15:21:36.263Z,1.20
2023-01-28T15:22:36.292Z,1.28
2023-01-28T15:23:36.262Z,1.12
2023-01-28T15:24:36.304Z,1.01
2023-01-28T15:25:36.242Z,1.08
2023-01-28T15:26:36.249Z,1.05
2023-01-28T15:27:36.239Z,0.95
2023-01-28T15:28:36.250Z,1.05
2023-01-28T15:29:36.232Z,0.99
2023-01-28T15:30:36.270Z,1.02
2023-01-28T15:31:36.313Z,0.99
2023-01-28T15:32:36.207Z,0.92
2023-01-28T15:33:36.190Z,0.87
2023-01-28T15:34:36.204Z,1.02
2023-01-28T15:35:36.195Z,0.99
2023-01-28T15:36:36.174Z,1.04
2023-01-28T15:37:36.201Z,1.08
2023-01-28T15:38:36.162Z,1.05
2023-01-28T15:39:36.147Z,1.13
2023-01-28T15:40:36.143Z,1.08
2023-01-28T15:41:36.150Z,1.04
2023-01-28T15:42:36.164Z,1.13
2023-01-28T15:43:36.146Z,1.01
2023-01-28T15:44:36.138Z,1.06
2023-01-28T15:45:36.153Z,1.08
2023-01-28T15:46:36.121Z,1.05
2023-01-28T15:47:36.114Z,1.10
2023-01-28T15:48:36.097Z,1.10
2023-01-28T15:49:36.094Z,1.17
2023-01-28T15:50:36.079Z,1.05
2023-01-28T15:51:36.114Z,1.12
2023-01-28T15:52:36.083Z,1.26
2023-01-28T15:53:36.060Z,1.12
2023-01-28T15:54:36.052Z,1.01
2023-01-28T15:55:36.078Z,1.10
2023-01-28T15:56:36.038Z,1.05
2023-01-28T15:57:36.070Z,1.14
2023-01-28T15:58:36.057Z,1.10
2023-01-28T15:59:36.015Z,1.05
2023-01-28T16:00:36.036Z,1.10
2023-01-28T16:01:36.016Z,1.06
2023-01-28T16:02:36.015Z,1.13
2023-01-28T16:03:36.041Z,1.19
2023-01-28T16:04:35.984Z,1.20
2023-01-28T16:05:35.983Z,1.20
2023-01-28T16:06:36.000Z,1.19
2023-01-28T16:07:35.973Z,1.04
2023-01-28T16:08:35.956Z,1.04
2023-01-28T16:09:35.951Z,1.04
2023-01-28T16:10:35.952Z,0.98
2023-01-28T16:11:35.941Z,0.98
2023-01-28T16:12:35.961Z,0.94
2023-01-28T16:13:35.938Z,0.92
2023-01-28T16:14:35.940Z,0.92
2023-01-28T16:15:35.929Z,0.91
2023-01-28T16:16:36.118Z,0.86
2023-01-28T16:17:35.907Z,0.80
2023-01-28T16:18:35.901Z,0.88
2023-01-28T16:19:35.913Z,0.94
2023-01-28T16:20:43.929Z,0.91
2023-01-28T16:21:35.904Z,0.81
2023-01-28T16:22:35.893Z,0.91
2023-01-28T16:23:38.346Z,0.81
2023-01-28T16:24:35.951Z,0.94
2023-01-28T16:25:35.869Z,0.92
2023-01-28T16:26:35.857Z,0.98
2023-01-28T16:27:35.862Z,1.05
2023-01-28T16:28:35.857Z,1.02
2023-01-28T16:29:35.827Z,1.02
2023-01-28T16:30:35.945Z,0.88
2023-01-28T16:31:35.992Z,0.92
2023-01-28T16:32:35.840Z,0.86
2023-01-28T16:33:35.803Z,0.84
2023-01-28T16:34:35.797Z,0.96
2023-01-28T16:36:01.284Z,0.94
2023-01-28T16:36:36.915Z,0.95
2023-01-28T16:37:37.220Z,0.92
2023-01-28T16:38:35.793Z,0.88
2023-01-28T16:39:35.786Z,0.94
2023-01-28T16:40:35.799Z,0.96
2023-01-28T16:41:35.768Z,0.86
2023-01-28T16:42:35.745Z,0.91
2023-01-28T16:43:35.762Z,0.84
2023-01-28T16:44:35.734Z,0.91
2023-01-28T16:45:35.725Z,0.95
2023-01-28T16:46:35.796Z,0.91
2023-01-28T16:47:35.706Z,0.88
2023-01-28T16:48:35.704Z,0.99
2023-01-28T16:49:35.736Z,1.01
2023-01-28T16:50:35.701Z,0.92
2023-01-28T16:51:35.698Z,0.91
2023-01-28T16:52:35.671Z,0.91
2023-01-28T16:53:35.684Z,0.95
2023-01-28T16:54:35.689Z,1.05
2023-01-28T16:55:35.680Z,0.98
2023-01-28T16:56:45.091Z,0.98
2023-01-28T16:57:36.640Z,0.95
2023-01-28T16:58:35.642Z,0.92
2023-01-28T16:59:35.631Z,0.78
2023-01-28T17:00:35.681Z,0.70
2023-01-28T17:01:35.648Z,0.65
2023-01-28T17:02:35.664Z,0.68
2023-01-28T17:03:35.671Z,0.70
2023-01-28T17:04:35.595Z,0.60
2023-01-28T17:05:35.608Z,0.65
2023-01-28T17:06:35.672Z,0.63
2023-01-28T17:07:35.581Z,0.63
2023-01-28T17:08:35.577Z,0.66
2023-01-28T17:09:35.567Z,0.63
2023-01-28T17:10:35.574Z,0.60
2023-01-28T17:11:35.559Z,0.65
2023-01-28T17:12:35.577Z,0.60
2023-01-28T17:13:35.548Z,0.58
2023-01-28T17:14:35.544Z,0.52
2023-01-28T17:15:35.550Z,0.55
2023-01-28T17:16:35.680Z,0.49
2023-01-28T17:17:35.546Z,0.58
2023-01-28T17:18:35.535Z,0.49
2023-01-28T17:19:35.508Z,0.47
2023-01-28T17:20:35.509Z,0.44
2023-01-28T17:21:35.514Z,0.46
2023-01-28T17:22:35.504Z,0.43
2023-01-28T17:23:35.507Z,0.44
2023-01-28T17:24:35.533Z,0.41
2023-01-28T17:25:35.523Z,0.44
2023-01-28T17:26:35.583Z,0.44
2023-01-28T17:27:35.454Z,0.47
2023-01-28T17:28:35.440Z,0.49
2023-01-28T17:29:35.462Z,0.44
2023-01-28T17:30:35.441Z,0.55
2023-01-28T17:31:35.625Z,0.56
2023-01-28T17:32:35.420Z,0.55
2023-01-28T17:33:35.405Z,0.68
2023-01-28T17:34:35.399Z,0.60
2023-01-28T17:35:35.425Z,0.56
2023-01-28T17:36:35.549Z,0.65
2023-01-28T17:37:35.417Z,0.60
2023-01-28T17:38:35.379Z,0.62
2023-01-28T17:39:35.379Z,0.60
2023-01-28T17:40:35.380Z,0.62
2023-01-28T17:41:35.402Z,0.62
2023-01-28T17:42:35.358Z,0.65
2023-01-28T17:43:35.356Z,0.65
2023-01-28T17:44:35.367Z,0.65
2023-01-28T17:45:35.386Z,0.62
2023-01-28T17:46:35.339Z,0.69
2023-01-28T17:47:35.327Z,0.68
2023-01-28T17:48:35.340Z,0.62
2023-01-28T17:49:35.327Z,0.59
2023-01-28T17:50:35.330Z,0.77
2023-01-28T17:51:35.314Z,0.68
2023-01-28T17:52:35.295Z,0.65
2023-01-28T17:53:35.285Z,0.63
2023-01-28T17:54:35.315Z,0.74
2023-01-28T17:55:35.282Z,0.69
2023-01-28T17:56:35.272Z,0.69
2023-01-28T17:57:35.272Z,0.69
2023-01-28T17:58:35.259Z,0.66
2023-01-28T17:59:35.249Z,0.59
2023-01-28T18:00:35.259Z,0.65
2023-01-28T18:01:35.253Z,0.69
2023-01-28T18:02:35.234Z,0.84
2023-01-28T18:03:35.250Z,0.77
2023-01-28T18:04:35.257Z,0.80
2023-01-28T18:05:35.212Z,0.65
2023-01-28T18:06:35.223Z,0.62
2023-01-28T18:07:35.215Z,0.68
2023-01-28T18:08:35.200Z,0.68
2023-01-28T18:09:35.211Z,0.69
2023-01-28T18:10:35.183Z,0.63
2023-01-28T18:11:35.189Z,0.77
2023-01-28T18:12:35.178Z,0.73
2023-01-28T18:13:35.174Z,0.74
2023-01-28T18:14:35.180Z,0.76
2023-01-28T18:15:35.163Z,0.78
2023-01-28T18:16:35.149Z,0.81
2023-01-28T18:17:35.182Z,0.86
2023-01-28T18:18:35.145Z,0.81
2023-01-28T18:19:35.124Z,0.78
2023-01-28T18:20:35.141Z,0.76
2023-01-28T18:21:51.240Z,0.81
2023-01-28T18:22:35.111Z,0.76
2023-01-28T18:23:35.121Z,0.74
2023-01-28T18:24:35.146Z,0.84
2023-01-28T18:25:35.095Z,0.73
2023-01-28T18:26:35.136Z,0.69
2023-01-28T18:27:35.064Z,0.69
2023-01-28T18:28:35.072Z,0.66
2023-01-28T18:29:35.058Z,0.63
2023-01-28T18:30:35.099Z,0.60
2023-01-28T18:31:35.082Z,0.63
2023-01-28T18:32:35.073Z,0.60
2023-01-28T18:33:35.050Z,0.70
2023-01-28T18:34:35.043Z,0.55
2023-01-28T18:35:35.061Z,0.43
2023-01-28T18:36:35.036Z,0.44
2023-01-28T18:37:35.026Z,0.40
2023-01-28T18:38:35.037Z,0.46
2023-01-28T18:39:34.997Z,0.46
2023-01-28T18:40:34.995Z,0.47
2023-01-28T18:41:34.987Z,0.49
2023-01-28T18:42:34.983Z,0.50
2023-01-28T18:43:34.983Z,0.43
2023-01-28T18:44:35.051Z,0.46
2023-01-28T18:45:35.000Z,0.50
2023-01-28T18:46:34.957Z,0.46
2023-01-28T18:47:34.962Z,0.47
2023-01-28T18:48:34.931Z,0.47
2023-01-28T18:49:34.949Z,0.41
2023-01-28T18:50:34.989Z,0.34
2023-01-28T18:51:34.928Z,0.37
2023-01-28T18:52:34.925Z,0.29
2023-01-28T18:53:34.903Z,0.25
2023-01-28T18:54:34.917Z,0.34
2023-01-28T18:55:34.921Z,0.29
2023-01-28T18:56:34.890Z,0.25
2023-01-28T18:57:34.884Z,0.28
2023-01-28T18:58:34.871Z,0.44
2023-01-28T18:59:34.871Z,0.43
2023-01-28T19:00:34.882Z,0.44
2023-01-28T19:01:35.034Z,0.40
2023-01-28T19:02:34.935Z,0.36
2023-01-28T19:03:34.839Z,0.37
2023-01-28T19:04:34.848Z,0.46
2023-01-28T19:05:34.831Z,0.49
2023-01-28T19:06:34.843Z,0.50
2023-01-28T19:07:34.833Z,0.41
2023-01-28T19:08:34.810Z,0.41
2023-01-28T19:09:34.829Z,0.36
2023-01-28T19:10:34.809Z,0.41
2023-01-28T19:11:34.818Z,0.47
2023-01-28T19:12:34.798Z,0.41
2023-01-28T19:13:34.775Z,0.44
2023-01-28T19:14:34.769Z,0.41
2023-01-28T19:15:34.770Z,0.59
2023-01-28T19:16:34.839Z,0.37
2023-01-28T19:17:35.609Z,0.40
2023-01-28T19:18:34.740Z,0.40
2023-01-28T19:19:34.757Z,0.26
2023-01-28T19:20:34.764Z,0.32
2023-01-28T19:21:34.759Z,0.32
2023-01-28T19:22:34.729Z,0.31
2023-01-28T19:23:48.185Z,0.29
2023-01-28T19:24:35.699Z,0.29
2023-01-28T19:25:34.715Z,0.18
2023-01-28T19:26:34.715Z,0.23
2023-01-28T19:27:34.693Z,0.31
2023-01-28T19:28:34.698Z,0.19
2023-01-28T19:29:34.705Z,0.22
2023-01-28T19:30:34.702Z,0.29
2023-01-28T19:31:34.674Z,0.23
2023-01-28T19:32:34.654Z,0.23
2023-01-28T19:33:34.657Z,0.23
2023-01-28T19:34:34.661Z,0.25
2023-01-28T19:35:34.651Z,0.15
2023-01-28T19:36:34.646Z,0.10
2023-01-28T19:37:34.645Z,0.11
2023-01-28T19:38:34.616Z,0.12
2023-01-28T19:39:34.609Z,0.21
2023-01-28T19:40:34.620Z,0.25
2023-01-28T19:41:34.632Z,0.26
2023-01-28T19:42:34.612Z,0.31
2023-01-28T19:43:34.589Z,0.28
2023-01-28T19:44:34.572Z,0.32
2023-01-28T19:45:34.571Z,0.41
2023-01-28T19:46:34.574Z,0.25
2023-01-28T19:47:34.574Z,0.29
2023-01-28T19:48:34.559Z,0.25
2023-01-28T19:49:34.559Z,0.26
2023-01-28T19:50:34.556Z,0.28
2023-01-28T19:51:34.549Z,0.23
2023-01-28T19:52:34.550Z,0.16
2023-01-28T19:53:34.573Z,0.15
2023-01-28T19:54:34.545Z,0.22
2023-01-28T19:55:34.522Z,0.25
2023-01-28T19:56:34.511Z,0.19
2023-01-28T19:57:34.522Z,0.04
2023-01-28T19:58:34.496Z,0.08
2023-01-28T19:59:34.507Z,0.19
2023-01-28T20:00:34.467Z,0.05
2023-01-28T20:01:34.485Z,0.23
2023-01-28T20:02:34.519Z,0.16
2023-01-28T20:03:34.484Z,0.22
2023-01-28T20:04:34.447Z,0.22
2023-01-28T20:05:34.450Z,0.26
2023-01-28T20:06:34.451Z,0.23
2023-01-28T20:07:34.452Z,0.32
2023-01-28T20:08:34.423Z,0.25
2023-01-28T20:09:34.420Z,0.40
2023-01-28T20:10:34.405Z,0.50
2023-01-28T20:11:34.447Z,0.41
2023-01-28T20:12:34.402Z,0.36
2023-01-28T20:13:34.381Z,0.31
2023-01-28T20:14:34.392Z,0.34
2023-01-28T20:15:34.475Z,0.29
2023-01-28T20:16:34.384Z,0.25
2023-01-28T20:17:34.447Z,0.26
2023-01-28T20:18:34.364Z,0.28
2023-01-28T20:19:34.386Z,0.22
2023-01-28T20:20:34.357Z,0.16
2023-01-28T20:21:34.347Z,0.18
2023-01-28T20:22:34.326Z,0.12
2023-01-28T20:23:34.363Z,0.21
2023-01-28T20:24:34.367Z,0.22
2023-01-28T20:25:34.314Z,0.21
2023-01-28T20:26:34.299Z,0.12
2023-01-28T20:27:34.298Z,0.23
2023-01-28T20:28:34.303Z,0.22
2023-01-28T20:29:34.293Z,0.16
2023-01-28T20:30:34.358Z,0.07
2023-01-28T20:31:34.331Z,0.05
2023-01-28T20:32:34.298Z,0.01
2023-01-28T20:33:34.259Z,0.18
2023-01-28T20:34:34.247Z,0.18
2023-01-28T20:35:34.269Z,0.12
2023-01-28T20:36:34.237Z,0.18
2023-01-28T20:37:34.232Z,0.01
2023-01-28T20:38:34.209Z,-0.02
2023-01-28T20:39:34.222Z,-0.02
2023-01-28T20:40:34.218Z,-0.07
2023-01-28T20:41:34.224Z,0.01
2023-01-28T20:42:34.198Z,-0.06
2023-01-28T20:43:34.188Z,-0.06
2023-01-28T20:44:34.197Z,-0.03
2023-01-28T20:45:34.168Z,-0.02
2023-01-28T20:46:34.228Z,0.01
2023-01-28T20:47:34.147Z,0.03
2023-01-28T20:48:34.171Z,-0.02
2023-01-28T20:49:34.154Z,0.00
2023-01-28T20:50:34.136Z,-0.02
2023-01-28T20:51:35.719Z,0.01
2023-01-28T20:52:34.138Z,0.03
2023-01-28T20:53:34.119Z,-0.02
2023-01-28T20:54:34.132Z,0.04
2023-01-28T20:55:34.118Z,0.04
2023-01-28T20:56:34.115Z,-0.02
2023-01-28T20:57:34.116Z,-0.14
2023-01-28T20:58:34.169Z,-0.07
2023-01-28T20:59:34.081Z,-0.14
2023-01-28T21:00:34.084Z,-0.08
2023-01-28T21:01:34.374Z,0.05
2023-01-28T21:02:34.083Z,-0.03
2023-01-28T21:03:34.096Z,-0.03
2023-01-28T21:04:34.074Z,-0.02
2023-01-28T21:05:34.060Z,-0.06
2023-01-28T21:06:34.039Z,-0.06
2023-01-28T21:07:34.037Z,-0.06
2023-01-28T21:08:34.043Z,-0.03
2023-01-28T21:09:34.027Z,-0.03
2023-01-28T21:10:34.037Z,-0.03
2023-01-28T21:11:34.011Z,0.01
2023-01-28T21:12:34.008Z,-0.02
2023-01-28T21:13:33.993Z,0.04
2023-01-28T21:14:33.988Z,-0.02
2023-01-28T21:15:34.023Z,-0.02
2023-01-28T21:16:33.989Z,0.01
2023-01-28T21:17:33.972Z,0.07
2023-01-28T21:18:33.962Z,0.03
2023-01-28T21:19:33.959Z,0.08
2023-01-28T21:20:33.951Z,0.11
2023-01-28T21:21:33.972Z,0.01
2023-01-28T21:22:33.924Z,0.12
2023-01-28T21:23:33.972Z,0.04
2023-01-28T21:24:33.966Z,0.15
2023-01-28T21:25:33.927Z,0.19
2023-01-28T21:26:33.929Z,0.04
2023-01-28T21:27:33.896Z,0.03
2023-01-28T21:28:33.936Z,0.05
2023-01-28T21:29:33.915Z,0.12
2023-01-28T21:30:33.918Z,0.15
2023-01-28T21:31:33.868Z,0.15
2023-01-28T21:32:33.908Z,0.03
2023-01-28T21:33:33.856Z,0.04
2023-01-28T21:34:33.854Z,-0.06
2023-01-28T21:35:33.848Z,-0.06
2023-01-28T21:36:33.843Z,-0.03
2023-01-28T21:37:33.853Z,0.01
2023-01-28T21:38:33.810Z,-0.10
2023-01-28T21:39:33.835Z,-0.20
2023-01-28T21:40:33.808Z,-0.20
2023-01-28T21:41:33.795Z,-0.21
2023-01-28T21:42:33.807Z,-0.10
2023-01-28T21:43:33.828Z,-0.17
2023-01-28T21:44:33.788Z,-0.10
2023-01-28T21:45:33.775Z,-0.11
2023-01-28T21:46:33.843Z,-0.13
2023-01-28T21:47:33.761Z,-0.14
2023-01-28T21:48:33.760Z,-0.08
2023-01-28T21:49:33.756Z,-0.11
2023-01-28T21:50:33.737Z,-0.14
2023-01-28T21:51:33.739Z,-0.13
2023-01-28T21:52:33.773Z,-0.02
2023-01-28T21:53:33.765Z,-0.06
2023-01-28T21:54:33.710Z,0.01
2023-01-28T21:55:33.717Z,0.01
2023-01-28T21:56:33.720Z,-0.07
2023-01-28T21:57:33.689Z,-0.15
2023-01-28T21:58:33.683Z,-0.07
2023-01-28T21:59:33.729Z,-0.10
2023-01-28T22:00:33.669Z,-0.18
2023-01-28T22:01:33.705Z,-0.13
2023-01-28T22:02:33.697Z,-0.10
2023-01-28T22:03:33.668Z,-0.07
2023-01-28T22:04:33.661Z,-0.06
2023-01-28T22:05:33.677Z,-0.02
2023-01-28T22:06:33.646Z,-0.11
2023-01-28T22:07:33.653Z,-0.13
2023-01-28T22:08:33.616Z,-0.13
2023-01-28T22:09:33.674Z,-0.08
2023-01-28T22:10:33.691Z,-0.18
2023-01-28T22:11:33.634Z,-0.15
2023-01-28T22:12:33.604Z,-0.21
2023-01-28T22:13:33.600Z,-0.21
2023-01-28T22:14:33.602Z,-0.14
2023-01-28T22:15:33.575Z,-0.17
2023-01-28T22:16:33.585Z,-0.15
2023-01-28T22:17:33.585Z,-0.18
2023-01-28T22:18:33.568Z,-0.15
2023-01-28T22:19:33.592Z,-0.25
2023-01-28T22:20:33.560Z,-0.08
2023-01-28T22:21:40.623Z,-0.17
2023-01-28T22:22:33.553Z,-0.18
2023-01-28T22:23:33.556Z,-0.14
2023-01-28T22:24:33.675Z,-0.13
2023-01-28T22:25:33.548Z,-0.17
2023-01-28T22:26:33.533Z,-0.17
2023-01-28T22:27:33.530Z,-0.14
2023-01-28T22:28:33.493Z,-0.10
2023-01-28T22:29:33.548Z,-0.15
2023-01-28T22:30:33.564Z,-0.08
2023-01-28T22:31:33.607Z,-0.10
2023-01-28T22:32:33.539Z,-0.10
2023-01-28T22:33:33.475Z,-0.18
2023-01-28T22:34:33.480Z,-0.23
2023-01-28T22:35:33.496Z,-0.07
2023-01-28T22:36:33.462Z,-0.10
2023-01-28T22:37:33.461Z,-0.15
2023-01-28T22:38:33.454Z,-0.25
2023-01-28T22:39:33.438Z,-0.17
2023-01-28T22:40:33.436Z,-0.25
2023-01-28T22:41:33.429Z,-0.21
2023-01-28T22:42:33.436Z,-0.17
2023-01-28T22:43:33.403Z,-0.20
2023-01-28T22:44:33.401Z,-0.14
2023-01-28T22:45:33.388Z,-0.17
2023-01-28T22:46:33.592Z,-0.21
2023-01-28T22:47:33.409Z,-0.18
2023-01-28T22:48:33.357Z,-0.15
2023-01-28T22:49:33.370Z,-0.14
2023-01-28T22:50:33.340Z,-0.20
2023-01-28T22:51:33.385Z,-0.15
2023-01-28T22:52:33.375Z,-0.15
2023-01-28T22:53:33.328Z,-0.13
2023-01-28T22:54:33.387Z,-0.10
2023-01-28T22:55:33.341Z,-0.10
2023-01-28T22:56:33.369Z,-0.14
2023-01-28T22:57:33.304Z,-0.15
2023-01-28T22:58:33.317Z,-0.20
2023-01-28T22:59:33.298Z,-0.21
2023-01-28T23:00:33.289Z,-0.38
2023-01-28T23:01:33.473Z,-0.34
2023-01-28T23:02:33.412Z,-0.29
2023-01-28T23:03:33.275Z,-0.32
2023-01-28T23:04:33.273Z,-0.26
2023-01-28T23:05:33.265Z,-0.26
2023-01-28T23:06:33.282Z,-0.18
2023-01-28T23:07:33.251Z,-0.26
2023-01-28T23:08:33.250Z,-0.28
2023-01-28T23:09:33.244Z,-0.41
2023-01-28T23:10:34.066Z,-0.39
2023-01-28T23:11:33.237Z,-0.41
2023-01-28T23:12:33.213Z,-0.38
2023-01-28T23:13:33.189Z,-0.23
2023-01-28T23:14:33.243Z,-0.28
2023-01-28T23:15:33.202Z,-0.25
2023-01-28T23:16:33.195Z,-0.32
2023-01-28T23:17:33.202Z,-0.39
2023-01-28T23:18:33.197Z,-0.41
2023-01-28T23:19:33.171Z,-0.47